Peleus — V2FV2 — position and weather

sailwx.info

Track history (hours):
 
Tides and Currents Weather Stations Pressure Air Temp Water Temp Dewpoint Dewpoint Depression Visibility Wind Speed Wind Dir Waves Ship Positions

Peleus

Last reported at 2014-Jul-31 22:09 UTC. Time now 2014-Jul-31 23:53 UTC.
Position N 38°23' E 014°03'.

Length 88 m; draft 5.6 m.

Type: Ship. MMSI: 305810000.

Date/timePositionNaut miles runAvg speedWind from/ knotsBaromVisibWave heightAir tempDewpointWater temp
2014-Jul-31 22:09N 38°23' E 014°03'5 8.2
2014-Jul-31 21:30N 38°23' E 013°57'8 8.3
2014-Jul-31 20:33N 38°24' E 013°47'8 8.4
2014-Jul-31 19:34N 38°24' E 013°36'8 8.4
2014-Jul-31 18:33N 38°25' E 013°25'8 8.4
2014-Jul-31 17:33N 38°26' E 013°15'8 8.4
2014-Jul-31 16:33N 38°26' E 013°04'8 8.5
2014-Jul-31 15:33N 38°27' E 012°53'  
2014-Jul-29 03:28N 40°46' E 003°30'7 7.1
2014-Jul-29 02:33N 40°49' E 003°22'8 8.0
2014-Jul-29 01:33N 40°53' E 003°13'8 8.0
2014-Jul-29 00:33N 40°56' E 003°04'8 7.6
2014-Jul-28 23:33N 40°60' E 002°55'7 7.4
2014-Jul-28 22:33N 41°03' E 002°46'7 6.9
2014-Jul-28 21:33N 41°06' E 002°38'8 7.2
2014-Jul-28 20:30N 41°10' E 002°29'9 7.6
2014-Jul-28 19:18N 41°14' E 002°18'10 0.6
2014-Jul-28 02:31N 41°22' E 002°11'2 2.1
2014-Jul-28 01:33N 41°20' E 002°11'1 0.7
2014-Jul-28 00:31N 41°20' E 002°11'0 0.0
2014-Jul-27 21:31N 41°20' E 002°11'0 0.0
2014-Jul-27 18:31N 41°20' E 002°11'0 0.0
2014-Jul-27 17:31N 41°20' E 002°11'0 0.0
2014-Jul-27 05:19N 41°20' E 002°11'0 0.0
2014-Jul-27 01:31N 41°20' E 002°11'0 0.0
2014-Jul-27 00:25N 41°20' E 002°11'0 0.0
2014-Jul-26 23:07N 41°20' E 002°11'0 0.0
2014-Jul-26 13:31N 41°20' E 002°11'0 0.0
2014-Jul-26 07:13N 41°20' E 002°11'0 0.0
2014-Jul-26 06:31N 41°20' E 002°11'0 0.0
2014-Jul-26 03:31N 41°20' E 002°11'0 0.0
2014-Jul-26 00:19N 41°20' E 002°11'0 0.0
2014-Jul-25 23:07N 41°20' E 002°11'0 0.0
2014-Jul-25 22:31N 41°20' E 002°11'0 0.0
2014-Jul-25 21:13N 41°20' E 002°11'0 0.0
2014-Jul-25 20:31N 41°20' E 002°11'0 0.0
2014-Jul-25 19:07N 41°20' E 002°11'0 0.0
2014-Jul-25 18:31N 41°20' E 002°11'0 0.0
2014-Jul-25 17:25N 41°20' E 002°11'0 0.0
2014-Jul-25 15:07N 41°20' E 002°11'0 0.0
2014-Jul-25 14:19N 41°20' E 002°11'0 0.0
2014-Jul-25 11:13N 41°20' E 002°11'0 0.0
2014-Jul-25 10:13N 41°20' E 002°11'0 0.0
2014-Jul-25 09:13N 41°20' E 002°11'0 0.0
2014-Jul-25 08:31N 41°20' E 002°11'0 0.0
2014-Jul-25 07:07N 41°20' E 002°11'0 0.0
2014-Jul-25 06:25N 41°20' E 002°11'0 0.0
2014-Jul-25 04:07N 41°20' E 002°11'0 0.0
2014-Jul-25 03:19N 41°20' E 002°11'0 0.0
2014-Jul-25 02:31N 41°20' E 002°11'0 0.0
2014-Jul-25 01:25N 41°20' E 002°11'0 0.0
2014-Jul-25 00:31N 41°20' E 002°11'0 0.0
2014-Jul-24 23:25N 41°20' E 002°11'0 0.0
2014-Jul-24 21:25N 41°20' E 002°11'0 0.0
2014-Jul-24 19:31N 41°20' E 002°11'0 0.0
2014-Jul-24 18:19N 41°20' E 002°11'0 0.0
2014-Jul-24 16:31N 41°20' E 002°11'6 6.2
2014-Jul-24 15:33N 41°15' E 002°09'9 9.3
2014-Jul-24 14:32N 41°07' E 002°01'9 9.0
2014-Jul-24 13:33N 41°00' E 001°54'9 9.0
2014-Jul-24 12:33N 40°54' E 001°46'2 1.8
2014-Jul-24 11:33N 40°52' E 001°44'0 0.4
2014-Jul-24 10:33N 40°52' E 001°44'0 0.5
2014-Jul-24 09:33N 40°52' E 001°43'7 7.0
2014-Jul-24 08:33N 40°47' E 001°37'8 7.9
2014-Jul-24 07:33N 40°41' E 001°31'8 8.2
2014-Jul-24 06:33N 40°36' E 001°22'9 8.5
2014-Jul-24 05:33N 40°30' E 001°14'8 8.2
2014-Jul-24 04:33N 40°25' E 001°05'9 8.6
2014-Jul-24 03:33N 40°19' E 000°57'9 8.7
2014-Jul-24 02:33N 40°14' E 000°48'8 8.3
2014-Jul-24 01:33N 40°09' E 000°39'8 8.2
2014-Jul-24 00:33N 40°03' E 000°31'41 8.2
2014-Jul-23 19:33N 39°37' W 000°10'0 0.1
2014-Jul-23 18:28N 39°37' W 000°10'0 0.0
2014-Jul-23 17:16N 39°37' W 000°10'0 0.0
2014-Jul-23 16:31N 39°37' W 000°10'0 0.0
2014-Jul-23 15:28N 39°37' W 000°10'0 0.0
2014-Jul-23 14:28N 39°37' W 000°10'0 0.0
2014-Jul-23 13:28N 39°37' W 000°10'0 0.0
2014-Jul-23 11:28N 39°37' W 000°10'0 0.0
2014-Jul-23 10:16N 39°37' W 000°10'0 0.0
2014-Jul-23 04:28N 39°37' W 000°10'0 0.0
2014-Jul-23 03:22N 39°37' W 000°10'0 0.0
2014-Jul-23 02:28N 39°37' W 000°10'0 0.0
2014-Jul-23 01:28N 39°37' W 000°10'0 0.0
2014-Jul-23 00:28N 39°37' W 000°10'0 0.0
2014-Jul-22 23:28N 39°37' W 000°10'0 0.0
2014-Jul-22 22:31N 39°37' W 000°10'0 0.0
2014-Jul-22 19:10N 39°37' W 000°10'0 0.0
2014-Jul-22 18:28N 39°37' W 000°10'2 2.1
2014-Jul-22 17:19N 39°38' W 000°12'1 0.1
2014-Jul-22 00:31N 39°39' W 000°13'  
Track history (hours):
 
Tides and Currents Weather Stations Pressure Air Temp Water Temp Dewpoint Dewpoint Depression Visibility Wind Speed Wind Dir Waves Ship Positions

Peleus

Last reported at 2014-Jul-31 22:09 UTC. Time now 2014-Jul-31 23:53 UTC.
Position N 38°23' E 014°03'.

Length 88 m; draft 5.6 m.

Type: Ship. MMSI: 305810000.

Date/timePositionNaut miles runAvg speedWind from/ knotsBaromVisibWave heightAir tempDewpointWater temp
2014-Jul-31 22:09N 38°23' E 014°03'5 8.2
2014-Jul-31 21:30N 38°23' E 013°57'8 8.3
2014-Jul-31 20:33N 38°24' E 013°47'8 8.4
2014-Jul-31 19:34N 38°24' E 013°36'8 8.4
2014-Jul-31 18:33N 38°25' E 013°25'8 8.4
2014-Jul-31 17:33N 38°26' E 013°15'8 8.4
2014-Jul-31 16:33N 38°26' E 013°04'8 8.5
2014-Jul-31 15:33N 38°27' E 012°53'  
2014-Jul-29 03:28N 40°46' E 003°30'7 7.1
2014-Jul-29 02:33N 40°49' E 003°22'8 8.0
2014-Jul-29 01:33N 40°53' E 003°13'8 8.0
2014-Jul-29 00:33N 40°56' E 003°04'8 7.6
2014-Jul-28 23:33N 40°60' E 002°55'7 7.4
2014-Jul-28 22:33N 41°03' E 002°46'7 6.9
2014-Jul-28 21:33N 41°06' E 002°38'8 7.2
2014-Jul-28 20:30N 41°10' E 002°29'9 7.6
2014-Jul-28 19:18N 41°14' E 002°18'10 0.6
2014-Jul-28 02:31N 41°22' E 002°11'2 2.1
2014-Jul-28 01:33N 41°20' E 002°11'1 0.7
2014-Jul-28 00:31N 41°20' E 002°11'0 0.0
2014-Jul-27 21:31N 41°20' E 002°11'0 0.0
2014-Jul-27 18:31N 41°20' E 002°11'0 0.0
2014-Jul-27 17:31N 41°20' E 002°11'0 0.0
2014-Jul-27 05:19N 41°20' E 002°11'0 0.0
2014-Jul-27 01:31N 41°20' E 002°11'0 0.0
2014-Jul-27 00:25N 41°20' E 002°11'0 0.0
2014-Jul-26 23:07N 41°20' E 002°11'0 0.0
2014-Jul-26 13:31N 41°20' E 002°11'0 0.0
2014-Jul-26 07:13N 41°20' E 002°11'0 0.0
2014-Jul-26 06:31N 41°20' E 002°11'0 0.0
2014-Jul-26 03:31N 41°20' E 002°11'0 0.0
2014-Jul-26 00:19N 41°20' E 002°11'0 0.0
2014-Jul-25 23:07N 41°20' E 002°11'0 0.0
2014-Jul-25 22:31N 41°20' E 002°11'0 0.0
2014-Jul-25 21:13N 41°20' E 002°11'0 0.0
2014-Jul-25 20:31N 41°20' E 002°11'0 0.0
2014-Jul-25 19:07N 41°20' E 002°11'0 0.0
2014-Jul-25 18:31N 41°20' E 002°11'0 0.0
2014-Jul-25 17:25N 41°20' E 002°11'0 0.0
2014-Jul-25 15:07N 41°20' E 002°11'0 0.0
2014-Jul-25 14:19N 41°20' E 002°11'0 0.0
2014-Jul-25 11:13N 41°20' E 002°11'0 0.0
2014-Jul-25 10:13N 41°20' E 002°11'0 0.0
2014-Jul-25 09:13N 41°20' E 002°11'0 0.0
2014-Jul-25 08:31N 41°20' E 002°11'0 0.0
2014-Jul-25 07:07N 41°20' E 002°11'0 0.0
2014-Jul-25 06:25N 41°20' E 002°11'0 0.0
2014-Jul-25 04:07N 41°20' E 002°11'0 0.0
2014-Jul-25 03:19N 41°20' E 002°11'0 0.0
2014-Jul-25 02:31N 41°20' E 002°11'0 0.0
2014-Jul-25 01:25N 41°20' E 002°11'0 0.0
2014-Jul-25 00:31N 41°20' E 002°11'0 0.0
2014-Jul-24 23:25N 41°20' E 002°11'0 0.0
2014-Jul-24 21:25N 41°20' E 002°11'0 0.0
2014-Jul-24 19:31N 41°20' E 002°11'0 0.0
2014-Jul-24 18:19N 41°20' E 002°11'0 0.0
2014-Jul-24 16:31N 41°20' E 002°11'6 6.2
2014-Jul-24 15:33N 41°15' E 002°09'9 9.3
2014-Jul-24 14:32N 41°07' E 002°01'9 9.0
2014-Jul-24 13:33N 41°00' E 001°54'9 9.0
2014-Jul-24 12:33N 40°54' E 001°46'2 1.8
2014-Jul-24 11:33N 40°52' E 001°44'0 0.4
2014-Jul-24 10:33N 40°52' E 001°44'0 0.5
2014-Jul-24 09:33N 40°52' E 001°43'7 7.0
2014-Jul-24 08:33N 40°47' E 001°37'8 7.9
2014-Jul-24 07:33N 40°41' E 001°31'8 8.2
2014-Jul-24 06:33N 40°36' E 001°22'9 8.5
2014-Jul-24 05:33N 40°30' E 001°14'8 8.2
2014-Jul-24 04:33N 40°25' E 001°05'9 8.6
2014-Jul-24 03:33N 40°19' E 000°57'9 8.7
2014-Jul-24 02:33N 40°14' E 000°48'8 8.3
2014-Jul-24 01:33N 40°09' E 000°39'8 8.2
2014-Jul-24 00:33N 40°03' E 000°31'41 8.2
2014-Jul-23 19:33N 39°37' W 000°10'0 0.1
2014-Jul-23 18:28N 39°37' W 000°10'0 0.0
2014-Jul-23 17:16N 39°37' W 000°10'0 0.0
2014-Jul-23 16:31N 39°37' W 000°10'0 0.0
2014-Jul-23 15:28N 39°37' W 000°10'0 0.0
2014-Jul-23 14:28N 39°37' W 000°10'0 0.0
2014-Jul-23 13:28N 39°37' W 000°10'0 0.0
2014-Jul-23 11:28N 39°37' W 000°10'0 0.0
2014-Jul-23 10:16N 39°37' W 000°10'0 0.0
2014-Jul-23 04:28N 39°37' W 000°10'0 0.0
2014-Jul-23 03:22N 39°37' W 000°10'0 0.0
2014-Jul-23 02:28N 39°37' W 000°10'0 0.0
2014-Jul-23 01:28N 39°37' W 000°10'0 0.0
2014-Jul-23 00:28N 39°37' W 000°10'0 0.0
2014-Jul-22 23:28N 39°37' W 000°10'0 0.0
2014-Jul-22 22:31N 39°37' W 000°10'0 0.0
2014-Jul-22 19:10N 39°37' W 000°10'0 0.0
2014-Jul-22 18:28N 39°37' W 000°10'2 2.1
2014-Jul-22 17:19N 39°38' W 000°12'1 0.1
2014-Jul-22 00:31N 39°39' W 000°13'  

Dump ship's entire track history